Time;durP1;ratioP1;P1;durP2;ratioP2;P2;SDS_P1;SDS_P2;PMS_P1;PMS_P2;Temp;Humidity;BMP_temperature;BMP_pressure;BME280_temperature;BME280_humidity;BME280_pressure;Samples;Min_cycle;Max_cycle;Signal;HPM_P1;HPM_P2
2022/11/11 00:00:22;;;;;;;6.10;2.60;;;3.50;99.90;;;;;;5033232;28;20178;-70
2022/11/11 00:02:48;;;;;;;4.13;1.77;;;3.40;99.90;;;;;;5033201;28;20179;-70
2022/11/11 00:05:17;;;;;;;2.43;1.37;;;3.50;99.90;;;;;;5033706;28;20277;-70
2022/11/11 00:07:42;;;;;;;2.10;1.00;;;3.40;99.90;;;;;;5034032;28;20417;-70
2022/11/11 00:10:09;;;;;;;3.27;1.50;;;3.40;99.90;;;;;;5033614;28;20463;-70
2022/11/11 00:12:35;;;;;;;3.73;1.70;;;3.30;99.90;;;;;;5033502;28;20670;-70
2022/11/11 00:15:00;;;;;;;4.13;1.43;;;3.30;99.90;;;;;;5032875;28;20452;-70
2022/11/11 00:25:40;;;;;;;2.30;1.30;;;3.30;99.90;;;;;;5023619;28;20538;-70
2022/11/11 00:28:06;;;;;;;6.03;1.27;;;3.30;99.90;;;;;;5035575;28;20917;-70
2022/11/11 00:30:31;;;;;;;2.50;1.43;;;3.30;99.90;;;;;;5044809;28;20686;-70
2022/11/11 00:32:57;;;;;;;3.00;1.37;;;3.20;99.90;;;;;;5036404;28;20191;-70
2022/11/11 00:38:44;;;;;;;3.37;1.57;;;3.20;99.90;;;;;;5033034;28;20206;-70
2022/11/11 00:41:01;;;;;;;4.40;1.60;;;3.30;99.90;;;;;;5032677;28;20437;-70
2022/11/11 00:43:27;;;;;;;1.93;1.27;;;3.30;99.90;;;;;;5043361;28;20503;-70
2022/11/11 00:45:52;;;;;;;2.00;1.00;;;3.30;99.90;;;;;;5037046;28;20539;-71
2022/11/11 00:51:03;;;;;;;1.60;0.90;;;3.30;99.90;;;;;;5032949;28;20229;-71
2022/11/11 00:53:31;;;;;;;2.47;1.10;;;3.30;99.90;;;;;;5032483;28;21278;-70
2022/11/11 00:55:57;;;;;;;3.00;1.33;;;3.30;99.90;;;;;;5032868;28;20182;-70
2022/11/11 00:58:23;;;;;;;1.97;1.23;;;3.20;99.90;;;;;;5032177;28;20587;-70
2022/11/11 01:00:52;;;;;;;4.73;1.50;;;3.10;99.90;;;;;;5032810;28;20901;-70
2022/11/11 01:03:18;;;;;;;3.33;1.50;;;3.10;99.90;;;;;;5032548;28;20500;-70
2022/11/11 01:05:44;;;;;;;3.60;1.43;;;3.00;99.90;;;;;;5032861;28;20904;-70
2022/11/11 01:08:09;;;;;;;2.97;1.50;;;3.00;99.90;;;;;;5032878;28;20421;-70
2022/11/11 01:10:42;;;;;;;9.43;1.50;;;3.00;99.90;;;;;;5033154;28;20178;-71
2022/11/11 01:13:26;;;;;;;1.83;1.10;;;3.00;99.90;;;;;;5032337;28;20312;-69
2022/11/11 01:16:01;;;;;;;6.07;1.80;;;3.00;99.90;;;;;;5023290;28;20409;-69
2022/11/11 01:18:27;;;;;;;1.80;1.10;;;3.00;99.90;;;;;;5020179;28;20476;-69
2022/11/11 01:20:58;;;;;;;3.00;1.43;;;3.10;99.90;;;;;;5037050;28;20409;-69
2022/11/11 01:23:24;;;;;;;2.10;1.20;;;3.10;99.90;;;;;;5040222;28;20417;-69
2022/11/11 01:25:51;;;;;;;2.73;1.40;;;3.10;99.90;;;;;;5036694;28;20417;-69
2022/11/11 01:28:17;;;;;;;2.50;1.40;;;3.00;99.90;;;;;;5026134;28;20178;-69
2022/11/11 01:30:43;;;;;;;8.37;1.90;;;2.90;99.90;;;;;;5036660;28;20444;-69
2022/11/11 01:33:09;;;;;;;1.97;1.10;;;2.90;99.90;;;;;;5026828;28;20517;-69
2022/11/11 01:35:40;;;;;;;3.90;2.20;;;3.00;99.90;;;;;;5022406;28;20197;-70
2022/11/11 01:38:07;;;;;;;3.10;1.43;;;3.00;99.90;;;;;;5031905;28;20548;-69
2022/11/11 01:40:53;;;;;;;2.63;1.27;;;3.00;99.90;;;;;;5035626;28;20412;-69
2022/11/11 01:43:21;;;;;;;2.13;0.87;;;3.00;99.90;;;;;;5040648;28;20425;-69
2022/11/11 01:45:49;;;;;;;3.23;1.60;;;2.90;99.90;;;;;;5037152;28;20418;-69
2022/11/11 01:51:43;;;;;;;2.43;1.47;;;2.90;99.90;;;;;;5027984;28;20976;-69
2022/11/11 01:54:21;;;;;;;3.80;1.23;;;2.80;99.90;;;;;;5031466;28;20915;-69
2022/11/11 01:56:53;;;;;;;3.40;1.70;;;2.80;99.90;;;;;;5014015;28;20440;-69
2022/11/11 01:59:19;;;;;;;3.57;1.60;;;2.80;99.90;;;;;;5030656;28;20457;-69
2022/11/11 02:01:45;;;;;;;3.60;1.30;;;2.80;99.90;;;;;;5030685;28;20908;-69
2022/11/11 02:06:59;;;;;;;5.50;1.57;;;2.70;99.90;;;;;;5031366;28;21007;-69
2022/11/11 02:09:25;;;;;;;3.53;1.30;;;2.60;99.90;;;;;;5029759;28;20502;-68
2022/11/11 02:14:50;;;;;;;3.47;1.60;;;2.80;99.90;;;;;;5038701;28;20208;-69
2022/11/11 02:17:16;;;;;;;3.70;1.73;;;2.80;99.90;;;;;;5017276;28;20542;-69
2022/11/11 02:19:44;;;;;;;3.40;2.10;;;2.90;99.90;;;;;;5034738;28;20444;-69
2022/11/11 02:22:28;;;;;;;4.53;1.90;;;2.90;99.90;;;;;;5030851;28;20178;-69
2022/11/11 02:24:55;;;;;;;5.73;1.73;;;2.90;99.90;;;;;;5028513;28;21179;-69
2022/11/11 02:27:23;;;;;;;3.27;1.60;;;2.80;99.90;;;;;;5021664;28;20432;-69
2022/11/11 02:29:51;;;;;;;5.63;2.20;;;2.70;99.90;;;;;;5030480;28;20413;-69
2022/11/11 02:32:17;;;;;;;4.97;1.63;;;2.70;99.90;;;;;;5031144;28;21048;-69
2022/11/11 02:34:43;;;;;;;5.33;1.80;;;2.70;99.90;;;;;;5031373;28;20412;-69
2022/11/11 02:37:09;;;;;;;2.47;1.73;;;2.70;99.90;;;;;;5030122;28;20670;-69
2022/11/11 02:39:42;;;;;;;3.60;1.90;;;2.80;99.90;;;;;;5030890;28;20193;-69
2022/11/11 02:42:09;;;;;;;7.80;2.50;;;2.70;99.90;;;;;;5038884;28;20416;-69
2022/11/11 02:44:38;;;;;;;5.87;2.23;;;2.80;99.90;;;;;;5039748;28;20505;-69
2022/11/11 02:47:04;;;;;;;3.30;1.83;;;2.70;99.90;;;;;;5035140;28;20419;-69
2022/11/11 02:49:30;;;;;;;6.70;2.20;;;2.70;99.90;;;;;;5016953;28;20831;-69
2022/11/11 02:51:55;;;;;;;4.40;2.17;;;2.60;99.90;;;;;;5034339;28;20507;-69
2022/11/11 02:54:21;;;;;;;6.87;2.27;;;2.60;99.90;;;;;;5034368;28;20601;-69
2022/11/11 02:59:30;;;;;;;3.50;1.80;;;2.70;99.90;;;;;;5035183;28;20188;-69
2022/11/11 03:01:56;;;;;;;2.33;1.83;;;2.70;99.90;;;;;;5039688;28;20417;-69
2022/11/11 03:04:22;;;;;;;3.30;2.07;;;2.70;99.90;;;;;;5034839;28;20178;-69
2022/11/11 03:06:47;;;;;;;3.77;2.20;;;2.70;99.90;;;;;;5034634;28;20174;-69
2022/11/11 03:09:13;;;;;;;3.53;1.67;;;2.70;99.90;;;;;;5034980;28;20174;-69
2022/11/11 03:11:39;;;;;;;3.40;2.37;;;2.70;99.90;;;;;;5034412;28;20579;-69
2022/11/11 03:14:06;;;;;;;8.13;2.57;;;2.70;99.90;;;;;;5034372;28;20206;-69
2022/11/11 03:19:17;;;;;;;7.30;2.73;;;2.60;99.90;;;;;;5036610;28;20471;-69
2022/11/11 03:21:42;;;;;;;5.50;2.10;;;2.60;99.90;;;;;;5046684;28;20900;-69
2022/11/11 03:24:08;;;;;;;2.40;1.90;;;2.60;99.90;;;;;;5034181;28;20186;-69
2022/11/11 03:26:34;;;;;;;2.93;1.97;;;2.50;99.90;;;;;;5031611;28;20189;-69
2022/11/11 03:29:00;;;;;;;2.80;1.90;;;2.50;99.90;;;;;;5032876;28;20178;-69
2022/11/11 03:31:25;;;;;;;10.43;2.57;;;2.50;99.90;;;;;;5034144;28;20206;-70
2022/11/11 03:33:51;;;;;;;3.47;1.73;;;2.50;99.90;;;;;;5033894;28;20182;-69
2022/11/11 03:36:17;;;;;;;2.77;2.10;;;2.40;99.90;;;;;;5033083;28;20270;-70
2022/11/11 03:38:42;;;;;;;3.37;1.63;;;2.30;99.90;;;;;;5033961;28;20650;-70
2022/11/11 03:41:08;;;;;;;4.30;1.97;;;2.30;99.90;;;;;;5035329;28;20189;-70
2022/11/11 03:43:37;;;;;;;3.43;1.50;;;2.20;99.90;;;;;;5044777;28;20174;-70
2022/11/11 03:46:04;;;;;;;4.43;2.33;;;2.30;99.90;;;;;;5036572;28;20538;-69
2022/11/11 03:48:33;;;;;;;18.33;1.80;;;2.30;99.90;;;;;;5039884;28;20427;-70
2022/11/11 03:50:59;;;;;;;3.23;1.70;;;2.30;99.90;;;;;;5044433;28;20421;-70
2022/11/11 03:53:24;;;;;;;3.60;1.77;;;2.20;99.90;;;;;;5033305;28;20980;-69
2022/11/11 03:55:50;;;;;;;4.40;1.97;;;2.20;99.90;;;;;;5032912;28;20197;-70
2022/11/11 03:58:17;;;;;;;4.50;1.90;;;2.30;99.90;;;;;;5033463;28;20202;-69
2022/11/11 04:00:42;;;;;;;18.60;2.30;;;2.40;99.90;;;;;;5033478;28;20413;-69
2022/11/11 04:11:35;;;;;;;3.53;1.53;;;2.50;99.90;;;;;;5039623;28;20963;-70
2022/11/11 04:16:50;;;;;;;4.10;1.57;;;2.50;99.90;;;;;;5033353;28;20460;-70
2022/11/11 04:22:00;;;;;;;3.10;1.40;;;2.60;99.90;;;;;;5033103;28;20752;-69
2022/11/11 04:27:13;;;;;;;5.90;2.60;;;2.70;99.90;;;;;;5022389;28;20228;-69
2022/11/11 04:29:39;;;;;;;5.07;2.97;;;2.70;99.90;;;;;;5014825;28;20825;-70
2022/11/11 04:34:54;;;;;;;4.87;1.77;;;2.80;99.90;;;;;;5033105;28;20432;-70
2022/11/11 04:37:20;;;;;;;3.13;2.10;;;2.80;99.90;;;;;;5034810;28;20456;-70
2022/11/11 04:42:31;;;;;;;3.20;2.10;;;2.70;99.90;;;;;;5035836;28;20987;-70
2022/11/11 04:48:05;;;;;;;3.30;2.07;;;2.60;99.90;;;;;;5033245;28;20475;-70
2022/11/11 04:50:36;;;;;;;6.87;3.33;;;2.60;99.90;;;;;;5033119;28;20429;-70
2022/11/11 04:53:04;;;;;;;4.03;1.90;;;2.60;99.90;;;;;;5032118;28;20432;-69
2022/11/11 04:58:16;;;;;;;3.77;2.37;;;2.70;99.90;;;;;;5032037;28;20468;-69
2022/11/11 05:00:42;;;;;;;7.03;2.40;;;2.60;99.90;;;;;;5032000;28;20819;-70
2022/11/11 05:03:17;;;;;;;5.10;2.40;;;2.50;99.90;;;;;;5031871;28;20425;-70
2022/11/11 05:08:57;;;;;;;3.20;1.60;;;2.40;99.90;;;;;;5032227;28;20420;-70
2022/11/11 05:11:49;;;;;;;4.17;1.67;;;2.30;99.90;;;;;;5032275;28;20424;-70
2022/11/11 05:22:47;;;;;;;3.20;1.93;;;2.20;99.90;;;;;;4981332;28;20804;-70
2022/11/11 05:25:25;;;;;;;2.97;2.00;;;2.30;99.90;;;;;;5014383;28;20433;-70
2022/11/11 05:27:52;;;;;;;4.47;2.30;;;2.30;99.90;;;;;;5040084;28;20240;-70
2022/11/11 05:30:18;;;;;;;5.03;2.00;;;2.40;99.90;;;;;;5034441;28;20433;-70
2022/11/11 05:32:44;;;;;;;4.73;2.33;;;2.40;99.90;;;;;;5022602;28;20918;-70
2022/11/11 05:35:11;;;;;;;3.23;2.27;;;2.40;99.90;;;;;;5027908;28;20437;-69
2022/11/11 05:37:37;;;;;;;5.13;2.80;;;2.40;99.90;;;;;;5036583;28;20488;-69
2022/11/11 05:40:04;;;;;;;4.60;2.00;;;2.40;99.90;;;;;;5031812;28;20913;-70
2022/11/11 05:42:30;;;;;;;4.73;2.13;;;2.40;99.90;;;;;;5039095;28;20467;-69
2022/11/11 05:44:56;;;;;;;12.93;2.43;;;2.30;99.90;;;;;;5027706;28;20442;-69
2022/11/11 05:47:21;;;;;;;4.40;2.07;;;2.30;99.90;;;;;;5016463;28;20187;-70
2022/11/11 05:49:47;;;;;;;5.73;2.23;;;2.30;99.90;;;;;;5031840;28;20194;-70
2022/11/11 05:52:15;;;;;;;3.50;2.07;;;2.30;99.90;;;;;;5031228;28;20178;-70
2022/11/11 05:54:41;;;;;;;2.97;2.20;;;2.20;99.90;;;;;;5026530;28;20253;-70
2022/11/11 05:57:07;;;;;;;5.40;2.20;;;2.10;99.90;;;;;;5026475;28;20461;-69
2022/11/11 05:59:32;;;;;;;5.23;2.30;;;2.10;99.90;;;;;;5030967;28;20843;-70
2022/11/11 06:01:58;;;;;;;5.03;2.03;;;2.10;99.90;;;;;;5031234;28;20187;-70
2022/11/11 06:04:24;;;;;;;3.87;2.10;;;2.20;99.90;;;;;;5031392;28;20186;-69
2022/11/11 06:06:49;;;;;;;4.27;2.50;;;2.20;99.90;;;;;;5031588;28;20198;-69
2022/11/11 06:09:15;;;;;;;2.90;2.10;;;2.30;99.90;;;;;;5031669;28;20193;-69
2022/11/11 06:11:40;;;;;;;10.57;2.40;;;2.40;99.90;;;;;;5031117;28;20228;-70
2022/11/11 06:14:06;;;;;;;7.50;2.30;;;2.30;99.90;;;;;;5030384;28;20220;-70
2022/11/11 06:16:32;;;;;;;3.17;1.87;;;2.30;99.90;;;;;;5034513;28;20598;-70
2022/11/11 06:18:59;;;;;;;9.60;2.90;;;2.20;99.90;;;;;;5048077;28;20650;-70
2022/11/11 06:21:25;;;;;;;7.57;4.00;;;2.20;99.90;;;;;;5038665;28;20553;-70
2022/11/11 06:23:50;;;;;;;7.07;3.13;;;2.10;99.90;;;;;;5035382;28;20428;-69
2022/11/11 06:26:16;;;;;;;6.60;3.50;;;2.10;99.90;;;;;;5035628;28;20432;-70
2022/11/11 06:28:50;;;;;;;5.20;3.07;;;2.10;99.90;;;;;;5035244;28;20190;-70
2022/11/11 06:31:18;;;;;;;7.60;3.67;;;2.20;99.90;;;;;;5035081;28;20190;-70
2022/11/11 06:33:44;;;;;;;9.83;3.17;;;2.20;99.90;;;;;;5034946;28;20436;-71
2022/11/11 06:36:12;;;;;;;6.30;3.10;;;2.30;99.90;;;;;;5033812;28;20432;-70
2022/11/11 06:38:38;;;;;;;4.30;2.80;;;2.30;99.90;;;;;;5035091;28;20256;-69
2022/11/11 06:41:04;;;;;;;8.50;3.63;;;2.40;99.90;;;;;;5035699;28;20425;-70
2022/11/11 06:43:30;;;;;;;5.37;3.13;;;2.40;99.90;;;;;;5046090;28;20430;-70
2022/11/11 06:45:56;;;;;;;5.97;2.30;;;2.40;99.90;;;;;;5038113;28;20210;-70
2022/11/11 06:48:23;;;;;;;5.03;2.67;;;2.40;99.90;;;;;;5035254;28;20217;-70
2022/11/11 06:50:49;;;;;;;6.30;2.90;;;2.40;99.90;;;;;;5034967;28;20182;-70
2022/11/11 06:53:17;;;;;;;5.53;2.83;;;2.30;99.90;;;;;;5034510;28;20441;-70
2022/11/11 06:55:43;;;;;;;3.43;2.13;;;2.30;99.90;;;;;;5034891;28;20513;-70
2022/11/11 06:58:11;;;;;;;11.13;2.83;;;2.30;99.90;;;;;;5034544;28;20472;-70
2022/11/11 07:00:38;;;;;;;4.10;2.07;;;2.40;99.90;;;;;;5026510;28;20464;-70
2022/11/11 07:03:06;;;;;;;3.73;2.23;;;2.50;99.90;;;;;;5034556;28;21280;-70
2022/11/11 07:05:33;;;;;;;4.23;2.90;;;2.50;99.90;;;;;;5034247;28;20755;-70
2022/11/11 07:08:08;;;;;;;5.40;2.33;;;2.70;99.90;;;;;;5032326;28;20436;-70
2022/11/11 07:10:37;;;;;;;3.20;1.83;;;2.80;99.90;;;;;;5033737;28;20428;-70
2022/11/11 07:13:04;;;;;;;8.63;2.03;;;2.90;99.90;;;;;;5033785;28;21191;-70
2022/11/11 07:15:29;;;;;;;5.07;2.13;;;2.90;99.90;;;;;;5024998;28;20461;-70
2022/11/11 07:17:55;;;;;;;2.97;1.90;;;3.00;99.90;;;;;;5039546;28;20511;-70
2022/11/11 07:20:20;;;;;;;5.70;2.43;;;3.00;99.90;;;;;;5030109;28;20217;-70
2022/11/11 07:22:47;;;;;;;4.27;1.90;;;3.00;99.90;;;;;;5032355;28;20951;-70
2022/11/11 07:25:12;;;;;;;4.03;2.20;;;3.00;99.90;;;;;;5031762;28;20788;-70
2022/11/11 07:27:39;;;;;;;5.27;2.00;;;3.00;99.90;;;;;;5030698;28;20520;-70
2022/11/11 07:30:05;;;;;;;5.40;1.80;;;3.10;99.90;;;;;;5027216;28;20183;-70
2022/11/11 07:32:31;;;;;;;4.93;1.87;;;3.20;99.90;;;;;;5032618;28;20433;-70
2022/11/11 07:34:57;;;;;;;4.17;2.80;;;3.30;99.90;;;;;;5039706;28;20440;-70
2022/11/11 07:37:23;;;;;;;10.23;5.30;;;3.40;99.90;;;;;;5024768;28;20707;-70
2022/11/11 07:39:48;;;;;;;24.67;7.63;;;3.40;99.90;;;;;;5016170;28;20198;-70
2022/11/11 07:42:14;;;;;;;7.10;4.00;;;3.50;99.90;;;;;;5032870;28;20231;-70
2022/11/11 07:44:40;;;;;;;19.83;5.97;;;3.50;99.90;;;;;;5030860;28;20197;-70
2022/11/11 07:47:05;;;;;;;27.13;9.90;;;3.50;99.90;;;;;;5030946;28;20199;-70
2022/11/11 07:49:31;;;;;;;29.23;10.60;;;3.60;99.90;;;;;;5020461;28;20516;-70
2022/11/11 07:51:57;;;;;;;103.93;37.67;;;3.70;99.90;;;;;;5026930;28;20187;-70
2022/11/11 07:54:22;;;;;;;6.20;3.97;;;3.80;99.90;;;;;;5029663;28;20237;-71
2022/11/11 07:56:48;;;;;;;7.10;2.90;;;3.90;99.90;;;;;;5044571;28;20804;-70
2022/11/11 07:59:13;;;;;;;3.83;2.43;;;4.00;99.90;;;;;;5038369;28;20191;-70
2022/11/11 08:01:39;;;;;;;3.57;2.20;;;4.10;99.90;;;;;;5029643;28;20221;-70
2022/11/11 08:04:05;;;;;;;11.17;3.23;;;4.10;99.90;;;;;;5032152;28;20666;-70
2022/11/11 08:06:30;;;;;;;5.67;2.50;;;4.20;99.90;;;;;;5021392;28;20187;-70
2022/11/11 08:08:56;;;;;;;4.90;2.80;;;4.30;99.90;;;;;;5030919;28;20265;-70
2022/11/11 08:14:05;;;;;;;6.60;3.10;;;4.60;99.90;;;;;;5034172;28;20217;-70
2022/11/11 08:16:31;;;;;;;6.70;3.07;;;4.80;99.90;;;;;;5032816;28;20913;-70
2022/11/11 08:18:57;;;;;;;8.87;3.43;;;5.00;99.90;;;;;;5036621;28;20214;-70
2022/11/11 08:21:23;;;;;;;9.90;4.23;;;5.20;99.90;;;;;;5029309;28;20193;-70
2022/11/11 08:23:50;;;;;;;12.60;5.50;;;5.40;99.90;;;;;;5030604;28;20905;-70
2022/11/11 08:26:17;;;;;;;8.37;5.20;;;5.70;99.90;;;;;;5029894;28;20459;-70
2022/11/11 08:28:43;;;;;;;23.93;10.47;;;5.80;99.90;;;;;;5027707;28;20532;-70
2022/11/11 08:31:09;;;;;;;14.97;6.90;;;5.90;99.90;;;;;;5003487;28;20521;-70
2022/11/11 08:33:35;;;;;;;13.80;3.47;;;5.90;99.90;;;;;;5035636;28;20270;-70
2022/11/11 08:36:01;;;;;;;4.53;2.60;;;6.10;99.90;;;;;;5029848;28;21090;-68
2022/11/11 08:38:27;;;;;;;3.27;2.10;;;6.30;99.90;;;;;;5023073;28;20469;-70
2022/11/11 08:40:53;;;;;;;3.30;2.40;;;6.50;99.90;;;;;;5029153;28;20210;-70
2022/11/11 08:43:19;;;;;;;6.47;2.47;;;6.60;99.90;;;;;;5027792;28;20425;-70
2022/11/11 08:45:45;;;;;;;5.87;3.10;;;6.70;99.90;;;;;;5031226;28;20929;-70
2022/11/11 08:48:11;;;;;;;3.77;2.13;;;6.80;99.90;;;;;;5035506;28;20521;-70
2022/11/11 08:50:38;;;;;;;11.77;3.90;;;6.90;99.90;;;;;;5033425;28;20198;-70
2022/11/11 08:53:06;;;;;;;5.90;3.40;;;6.90;99.90;;;;;;5024524;28;20437;-69
2022/11/11 08:55:36;;;;;;;3.60;2.53;;;7.00;99.90;;;;;;5025673;28;20444;-70
2022/11/11 08:58:04;;;;;;;4.53;2.50;;;7.10;99.90;;;;;;5014098;28;20551;-70
2022/11/11 09:00:31;;;;;;;3.10;1.87;;;7.30;99.90;;;;;;5016022;28;20500;-69
2022/11/11 09:03:01;;;;;;;3.60;2.30;;;7.40;99.90;;;;;;5016834;28;20501;-69
2022/11/11 09:05:27;;;;;;;7.90;2.60;;;7.50;99.90;;;;;;5019947;28;20420;-70
2022/11/11 09:07:53;;;;;;;4.53;1.60;;;7.50;99.90;;;;;;5013817;28;20418;-69
2022/11/11 09:10:18;;;;;;;3.27;1.50;;;7.40;99.90;;;;;;5016458;28;20452;-70
2022/11/11 09:12:44;;;;;;;3.47;1.80;;;7.50;99.90;;;;;;5015943;28;20182;-70
2022/11/11 09:15:10;;;;;;;2.47;1.60;;;7.60;99.90;;;;;;5014458;28;20179;-70
2022/11/11 09:17:35;;;;;;;3.73;2.20;;;7.50;99.90;;;;;;5013004;28;20246;-70
2022/11/11 09:20:01;;;;;;;7.53;2.63;;;7.50;99.90;;;;;;5024555;28;20660;-70
2022/11/11 09:22:26;;;;;;;5.73;2.13;;;7.50;99.90;;;;;;5022331;28;20179;-70
2022/11/11 09:24:52;;;;;;;6.20;1.87;;;7.50;99.90;;;;;;5019050;28;20289;-70
2022/11/11 09:27:17;;;;;;;2.30;1.57;;;7.60;99.90;;;;;;5018906;28;20183;-69
2022/11/11 09:29:43;;;;;;;2.20;1.20;;;7.60;99.90;;;;;;5029257;28;20186;-70
2022/11/11 09:32:09;;;;;;;4.57;1.70;;;7.70;99.90;;;;;;5020825;28;20218;-69
2022/11/11 09:34:34;;;;;;;2.53;1.10;;;7.80;99.90;;;;;;5039515;28;20200;-70
2022/11/11 09:37:00;;;;;;;2.87;1.70;;;7.90;99.90;;;;;;5034940;28;20191;-69
2022/11/11 09:39:25;;;;;;;3.93;1.97;;;8.00;99.90;;;;;;5016914;28;20198;-70
2022/11/11 09:42:04;;;;;;;2.33;1.33;;;8.10;99.90;;;;;;5023613;28;20554;-69
2022/11/11 09:45:01;;;;;;;4.27;1.90;;;8.20;99.90;;;;;;5017617;28;20174;-70
2022/11/11 09:47:55;;;;;;;3.80;1.73;;;8.40;99.90;;;;;;5024309;28;20454;-70
2022/11/11 09:50:27;;;;;;;3.00;1.40;;;8.50;99.90;;;;;;5010273;28;20928;-70
2022/11/11 09:53:14;;;;;;;2.70;1.23;;;8.70;99.90;;;;;;5019759;28;20760;-70
2022/11/11 09:55:43;;;;;;;2.53;1.53;;;8.80;99.90;;;;;;5016548;28;20414;-69
2022/11/11 09:58:17;;;;;;;2.40;1.33;;;9.00;99.90;;;;;;5023759;28;20461;-69
2022/11/11 10:00:46;;;;;;;3.80;1.77;;;9.10;99.90;;;;;;5031039;28;20925;-69
2022/11/11 10:03:18;;;;;;;2.67;1.33;;;9.30;99.90;;;;;;5023540;28;20792;-69
2022/11/11 10:05:51;;;;;;;2.90;1.40;;;9.50;99.90;;;;;;5022039;28;20754;-69
2022/11/11 10:08:25;;;;;;;3.93;1.17;;;9.70;99.90;;;;;;5039202;28;20422;-70
2022/11/11 10:10:53;;;;;;;2.00;1.17;;;9.90;99.90;;;;;;5022439;28;20462;-69
2022/11/11 10:13:22;;;;;;;1.70;0.90;;;10.00;99.90;;;;;;5035226;28;20457;-69
2022/11/11 10:16:16;;;;;;;1.70;0.87;;;10.10;99.90;;;;;;5026017;28;20428;-69
2022/11/11 10:18:54;;;;;;;2.40;0.93;;;10.00;99.90;;;;;;4995209;28;20868;-69
2022/11/11 10:21:24;;;;;;;2.23;1.03;;;10.10;99.90;;;;;;5032074;28;20511;-69
2022/11/11 10:23:54;;;;;;;3.23;1.60;;;10.30;99.90;;;;;;5037713;28;20440;-69
2022/11/11 10:26:43;;;;;;;3.13;1.50;;;10.50;99.90;;;;;;5036265;28;20417;-69
2022/11/11 10:29:16;;;;;;;2.40;0.90;;;10.60;99.90;;;;;;5037285;28;20424;-69
2022/11/11 10:31:43;;;;;;;2.00;0.80;;;10.90;99.90;;;;;;5033635;28;20409;-69
2022/11/11 10:34:15;;;;;;;2.10;1.07;;;11.00;99.90;;;;;;5030821;28;20446;-69
2022/11/11 10:36:52;;;;;;;1.40;0.70;;;11.00;99.90;;;;;;5025737;28;20878;-69
2022/11/11 10:39:39;;;;;;;2.23;1.10;;;11.20;99.90;;;;;;5029148;28;20828;-69
2022/11/11 10:42:14;;;;;;;1.70;0.90;;;11.40;99.90;;;;;;5015669;28;20957;-69
2022/11/11 10:44:41;;;;;;;1.70;0.90;;;11.60;99.90;;;;;;5019660;28;20417;-69
2022/11/11 10:47:18;;;;;;;1.70;0.80;;;11.50;99.90;;;;;;5025553;28;20956;-69
2022/11/11 10:50:14;;;;;;;4.43;1.13;;;11.50;99.90;;;;;;5030740;28;20765;-69
2022/11/11 10:52:58;;;;;;;1.50;0.83;;;11.40;99.90;;;;;;5008855;28;20782;-69
2022/11/11 10:55:39;;;;;;;1.63;0.87;;;11.50;99.90;;;;;;5023963;28;20422;-69
2022/11/11 10:58:15;;;;;;;2.50;1.20;;;11.60;99.90;;;;;;5020530;28;20458;-69
2022/11/11 11:00:44;;;;;;;1.40;0.70;;;11.70;99.90;;;;;;5019857;28;20420;-69
2022/11/11 11:03:21;;;;;;;1.60;0.70;;;12.00;99.90;;;;;;5024422;28;20508;-69
2022/11/11 11:06:13;;;;;;;1.87;0.80;;;12.10;99.90;;;;;;5021697;28;20459;-69
2022/11/11 11:08:47;;;;;;;3.73;1.10;;;12.30;99.90;;;;;;5018090;28;20436;-69
2022/11/11 11:11:25;;;;;;;1.57;0.77;;;12.40;99.90;;;;;;5017711;28;20477;-69
2022/11/11 11:13:54;;;;;;;3.40;0.83;;;12.50;99.90;;;;;;5026448;28;20460;-69
2022/11/11 11:16:24;;;;;;;3.03;1.10;;;12.50;99.90;;;;;;5043258;28;20462;-69
2022/11/11 11:19:14;;;;;;;2.07;0.80;;;12.50;99.90;;;;;;5038688;28;20882;-69
2022/11/11 11:22:00;;;;;;;2.30;1.00;;;12.40;99.90;;;;;;5026273;28;20425;-69
2022/11/11 11:24:27;;;;;;;1.87;0.73;;;12.40;99.90;;;;;;5016512;28;20895;-69
2022/11/11 11:26:56;;;;;;;2.40;0.83;;;12.40;99.90;;;;;;5024855;28;20421;-69
2022/11/11 11:29:34;;;;;;;1.50;0.80;;;12.50;99.90;;;;;;5023650;28;20429;-69
2022/11/11 11:32:20;;;;;;;4.13;0.80;;;12.60;99.90;;;;;;5016470;28;20941;-69
2022/11/11 11:34:47;;;;;;;3.97;1.20;;;12.70;99.90;;;;;;5026833;28;20904;-69
2022/11/11 11:37:14;;;;;;;1.40;0.80;;;12.80;99.90;;;;;;5045675;28;20536;-69
2022/11/11 11:39:39;;;;;;;2.93;1.40;;;12.80;99.90;;;;;;5031357;28;20503;-69
2022/11/11 11:42:06;;;;;;;1.47;0.70;;;12.70;99.90;;;;;;5044931;28;20881;-69
2022/11/11 11:44:37;;;;;;;1.90;0.90;;;12.60;99.90;;;;;;5033190;28;20190;-69
2022/11/11 11:47:05;;;;;;;1.50;0.90;;;12.60;99.90;;;;;;5033952;28;20421;-69
2022/11/11 11:49:53;;;;;;;1.60;0.73;;;12.60;99.90;;;;;;5045329;28;20427;-69
2022/11/11 11:52:37;;;;;;;3.10;1.13;;;12.40;99.90;;;;;;5028821;28;20774;-69
2022/11/11 11:55:14;;;;;;;1.60;0.93;;;12.40;99.90;;;;;;5027913;28;20796;-69
2022/11/11 11:57:47;;;;;;;5.83;0.90;;;12.40;99.90;;;;;;5033012;28;20469;-69
2022/11/11 12:00:22;;;;;;;3.60;0.90;;;12.40;99.90;;;;;;5025437;28;20413;-69
2022/11/11 12:03:03;;;;;;;1.40;0.70;;;12.40;99.90;;;;;;5032233;28;20424;-69
2022/11/11 12:05:48;;;;;;;5.20;1.50;;;12.40;99.90;;;;;;5044739;28;20404;-69
2022/11/11 12:08:31;;;;;;;1.63;0.80;;;12.40;99.90;;;;;;5034182;28;20486;-69
2022/11/11 12:11:10;;;;;;;3.17;1.00;;;12.40;99.90;;;;;;5024473;28;20435;-69
2022/11/11 12:13:53;;;;;;;2.03;1.07;;;12.50;99.90;;;;;;5012289;28;20413;-69
2022/11/11 12:16:41;;;;;;;1.47;0.70;;;12.50;99.90;;;;;;5024649;28;20424;-69
2022/11/11 12:19:09;;;;;;;2.30;1.00;;;12.50;99.90;;;;;;5024327;28;20465;-69
2022/11/11 12:22:33;;;;;;;1.87;0.90;;;12.60;99.90;;;;;;5022473;28;20794;-69
2022/11/11 12:25:19;;;;;;;1.80;0.80;;;12.70;99.90;;;;;;4951436;28;20460;-69
2022/11/11 12:27:53;;;;;;;2.73;0.80;;;12.80;99.90;;;;;;4947432;29;20444;-69
2022/11/11 12:30:27;;;;;;;1.27;0.63;;;12.90;99.90;;;;;;5006004;28;20434;-69
2022/11/11 12:33:17;;;;;;;2.60;0.90;;;12.80;99.90;;;;;;5016324;28;20521;-69
2022/11/11 12:36:14;;;;;;;2.07;0.80;;;12.90;99.90;;;;;;5021036;28;20424;-69
2022/11/11 12:39:26;;;;;;;1.43;0.80;;;13.00;99.90;;;;;;5012689;28;20496;-69
2022/11/11 12:42:13;;;;;;;3.50;1.37;;;13.00;99.90;;;;;;4977568;28;20503;-69
2022/11/11 12:44:54;;;;;;;2.03;0.97;;;13.00;99.90;;;;;;5027690;28;20408;-69
2022/11/11 12:47:48;;;;;;;1.63;0.90;;;13.00;99.90;;;;;;5027093;28;20439;-69
2022/11/11 12:50:49;;;;;;;2.20;1.20;;;13.10;99.90;;;;;;5030780;28;20431;-69
2022/11/11 12:53:42;;;;;;;1.73;0.70;;;13.20;99.90;;;;;;5025526;28;20523;-69
2022/11/11 12:56:35;;;;;;;6.20;1.97;;;13.30;99.90;;;;;;5031633;28;20463;-69
2022/11/11 12:59:27;;;;;;;4.70;1.27;;;13.50;99.90;;;;;;5019118;28;21018;-69
2022/11/11 13:02:27;;;;;;;1.80;0.80;;;13.50;99.90;;;;;;5014318;28;20453;-69
2022/11/11 13:05:14;;;;;;;1.77;1.03;;;13.50;99.90;;;;;;5016893;28;20722;-69
2022/11/11 13:08:15;;;;;;;1.50;0.70;;;13.50;99.90;;;;;;5023427;28;20494;-69
2022/11/11 13:11:03;;;;;;;1.30;0.60;;;13.50;99.90;;;;;;4977598;28;20431;-69
2022/11/11 13:13:47;;;;;;;14.83;1.30;;;13.40;99.90;;;;;;5016251;28;20521;-69
2022/11/11 13:16:16;;;;;;;3.67;1.47;;;13.30;99.90;;;;;;5011718;28;20426;-69
2022/11/11 13:18:52;;;;;;;2.13;1.20;;;13.30;99.90;;;;;;5026444;28;20511;-70
2022/11/11 13:21:28;;;;;;;2.00;0.90;;;13.20;99.90;;;;;;5032369;28;20451;-69
2022/11/11 13:23:53;;;;;;;10.57;1.47;;;13.20;99.90;;;;;;5026795;28;20886;-69
2022/11/11 13:26:47;;;;;;;1.50;0.90;;;13.30;99.90;;;;;;5018353;28;20508;-69
2022/11/11 13:29:48;;;;;;;2.77;1.27;;;13.30;99.90;;;;;;5024478;28;20186;-69
2022/11/11 13:32:18;;;;;;;1.70;0.80;;;13.30;99.90;;;;;;5023566;28;20452;-70
2022/11/11 13:34:45;;;;;;;2.37;0.90;;;13.20;99.90;;;;;;5022251;28;20468;-69
2022/11/11 13:37:24;;;;;;;1.80;1.07;;;13.20;99.90;;;;;;5020150;28;20421;-69
2022/11/11 13:39:51;;;;;;;1.50;0.70;;;13.10;99.90;;;;;;5023319;28;20896;-69
2022/11/11 13:42:27;;;;;;;9.10;1.00;;;13.10;99.90;;;;;;5021935;28;20422;-69
2022/11/11 13:44:56;;;;;;;1.70;0.80;;;13.10;99.90;;;;;;5028190;28;20420;-69
2022/11/11 13:47:33;;;;;;;1.80;0.90;;;13.10;99.90;;;;;;5025271;28;20413;-69
2022/11/11 13:50:04;;;;;;;1.83;0.87;;;13.20;99.90;;;;;;5001386;28;20429;-69
2022/11/11 13:52:34;;;;;;;10.70;1.60;;;13.10;99.90;;;;;;5017953;28;20425;-69
2022/11/11 13:55:03;;;;;;;2.60;1.10;;;13.10;99.90;;;;;;5024013;28;20537;-69
2022/11/11 13:57:31;;;;;;;5.10;1.70;;;13.10;99.90;;;;;;5031254;28;20802;-69
2022/11/11 13:59:57;;;;;;;1.80;0.80;;;13.10;99.90;;;;;;5015536;28;20468;-69
2022/11/11 14:02:22;;;;;;;5.17;0.97;;;13.10;99.90;;;;;;5010408;28;20453;-69
2022/11/11 14:05:07;;;;;;;2.93;0.87;;;13.10;99.90;;;;;;5012502;28;20234;-69
2022/11/11 14:07:48;;;;;;;2.37;0.90;;;13.10;99.90;;;;;;5020584;28;20191;-69
2022/11/11 14:10:16;;;;;;;3.00;1.50;;;13.00;99.90;;;;;;5017507;28;20459;-70
2022/11/11 14:12:45;;;;;;;1.60;0.87;;;13.10;99.90;;;;;;5030890;28;20445;-69
2022/11/11 14:15:45;;;;;;;1.70;0.80;;;13.10;99.90;;;;;;5017834;28;20433;-70
2022/11/11 14:18:17;;;;;;;21.27;4.10;;;13.10;99.90;;;;;;5041495;28;20510;-69
2022/11/11 14:20:48;;;;;;;23.00;6.17;;;13.10;99.90;;;;;;5021180;28;20468;-69
2022/11/11 14:23:41;;;;;;;2.30;1.10;;;13.10;99.90;;;;;;5028251;28;20425;-70